Time;durP1;ratioP1;P1;durP2;ratioP2;P2;SDS_P1;SDS_P2;PMS_P1;PMS_P2;Temp;Humidity;BMP_temperature;BMP_pressure;BME280_temperature;BME280_humidity;BME280_pressure;Samples;Min_cycle;Max_cycle;Signal;HPM_P1;HPM_P2
2023/12/26 00:00:29;;;;;;;1.30;1.10;;;;;;;9.79;100.00;100512.50;5039587;28;20033;-78
2023/12/26 00:02:55;;;;;;;3.35;1.60;;;;;;;9.76;100.00;100494.28;5046851;28;20025;-78
2023/12/26 00:05:21;;;;;;;2.25;1.00;;;;;;;9.77;100.00;100508.41;5048672;28;20112;-78
2023/12/26 00:07:47;;;;;;;2.92;1.13;;;;;;;9.70;100.00;100497.75;5049950;28;20926;-79
2023/12/26 00:10:13;;;;;;;4.57;1.00;;;;;;;9.71;100.00;100506.56;5049566;28;20029;-79
2023/12/26 00:12:39;;;;;;;3.33;1.13;;;;;;;9.75;100.00;100515.81;5049763;28;20071;-79
2023/12/26 00:15:04;;;;;;;1.73;1.55;;;;;;;9.69;100.00;100504.06;5049824;28;20059;-78
2023/12/26 00:17:30;;;;;;;3.72;1.08;;;;;;;9.76;100.00;100512.09;5049683;28;20159;-79
2023/12/26 00:19:55;;;;;;;2.63;1.30;;;;;;;9.76;100.00;100517.44;5031776;28;20021;-79
2023/12/26 00:22:21;;;;;;;1.40;1.00;;;;;;;9.75;100.00;100510.47;5049630;28;20111;-79
2023/12/26 00:24:48;;;;;;;2.50;1.67;;;;;;;9.74;100.00;100512.28;5049649;28;20036;-79
2023/12/26 00:27:14;;;;;;;5.18;1.50;;;;;;;9.72;100.00;100494.88;5048476;28;20029;-78
2023/12/26 00:29:39;;;;;;;2.30;1.10;;;;;;;9.68;100.00;100498.97;5049255;28;20056;-79
2023/12/26 00:32:05;;;;;;;2.47;1.38;;;;;;;9.72;100.00;100508.19;5048179;28;20028;-79
2023/12/26 00:34:30;;;;;;;3.67;1.35;;;;;;;9.71;100.00;100506.56;5047961;28;20400;-78
2023/12/26 00:36:56;;;;;;;2.22;1.30;;;;;;;9.72;100.00;100505.53;5048123;28;20083;-78
2023/12/26 00:39:21;;;;;;;3.50;1.20;;;;;;;9.71;100.00;100501.22;5049271;28;20051;-78
2023/12/26 00:41:46;;;;;;;3.65;2.25;;;;;;;9.70;100.00;100513.72;5047900;28;20032;-79
2023/12/26 00:44:12;;;;;;;6.20;2.33;;;;;;;9.68;100.00;100506.94;5047892;28;20033;-78
2023/12/26 00:46:37;;;;;;;1.33;1.20;;;;;;;9.64;100.00;100510.03;5031146;28;20029;-78
2023/12/26 00:49:03;;;;;;;1.80;1.08;;;;;;;9.68;100.00;100505.09;5014767;28;20755;-79
2023/12/26 00:51:30;;;;;;;1.48;1.27;;;;;;;9.69;100.00;100514.72;5049827;28;20537;-82
2023/12/26 00:53:56;;;;;;;1.20;1.00;;;;;;;9.65;100.00;100519.63;5050463;28;20167;-81
2023/12/26 00:56:21;;;;;;;1.52;1.20;;;;;;;9.66;100.00;100523.94;5051161;28;20064;-82
2023/12/26 00:58:46;;;;;;;1.42;0.98;;;;;;;9.59;100.00;100515.13;5050739;28;20262;-83
2023/12/26 01:01:12;;;;;;;1.42;1.00;;;;;;;9.61;100.00;100526.38;5049529;28;20021;-82
2023/12/26 01:03:37;;;;;;;2.88;1.13;;;;;;;9.65;100.00;100540.13;5049739;28;20548;-83
2023/12/26 01:06:03;;;;;;;5.80;1.30;;;;;;;9.58;100.00;100533.94;5050581;28;20495;-82
2023/12/26 01:08:28;;;;;;;2.20;1.27;;;;;;;9.61;100.00;100537.00;5050493;28;20116;-82
2023/12/26 01:10:53;;;;;;;4.65;1.17;;;;;;;9.63;100.00;100534.16;5032671;28;20033;-83
2023/12/26 01:13:19;;;;;;;2.83;1.10;;;;;;;9.62;100.00;100529.88;5049329;28;20163;-83
2023/12/26 01:15:45;;;;;;;1.30;1.00;;;;;;;9.55;100.00;100523.69;5050421;28;20025;-82
2023/12/26 01:18:10;;;;;;;4.38;1.30;;;;;;;9.64;100.00;100541.13;5050250;28;20040;-84
2023/12/26 01:20:36;;;;;;;1.52;1.42;;;;;;;9.63;100.00;100537.66;5050404;28;20029;-83
2023/12/26 01:23:02;;;;;;;1.50;1.35;;;;;;;9.63;100.00;100550.97;5050494;28;20152;-82
2023/12/26 01:25:28;;;;;;;1.20;1.10;;;;;;;9.62;100.00;100552.00;5049171;28;20943;-82
2023/12/26 01:27:53;;;;;;;1.63;1.13;;;;;;;9.63;100.00;100548.31;5049092;28;20025;-82
2023/12/26 01:30:19;;;;;;;1.77;1.08;;;;;;;9.60;100.00;100542.56;5050360;28;20488;-83
2023/12/26 01:32:44;;;;;;;1.88;1.40;;;;;;;9.63;100.00;100553.63;5048880;28;20029;-82
2023/12/26 01:35:10;;;;;;;3.85;1.30;;;;;;;9.62;100.00;100546.66;5050402;28;20106;-83
2023/12/26 01:37:35;;;;;;;1.52;1.35;;;;;;;9.65;100.00;100556.91;5050056;28;20056;-82
2023/12/26 01:40:01;;;;;;;3.95;1.40;;;;;;;9.64;100.00;100557.94;5050290;28;20154;-82
2023/12/26 01:42:26;;;;;;;2.20;1.55;;;;;;;9.62;100.00;100557.31;5050141;28;20420;-82
2023/12/26 01:44:51;;;;;;;2.53;1.77;;;;;;;9.61;100.00;100552.19;5049089;28;20112;-82
2023/12/26 01:47:17;;;;;;;3.10;1.90;;;;;;;9.65;100.00;100559.59;5050238;28;20040;-82
2023/12/26 01:49:44;;;;;;;2.78;1.50;;;;;;;9.61;100.00;100560.16;5050280;28;20155;-82
2023/12/26 01:52:12;;;;;;;1.85;1.55;;;;;;;9.64;100.00;100571.25;5053574;28;20029;-82
2023/12/26 01:54:38;;;;;;;0.98;0.85;;;;;;;9.66;100.00;100574.53;5053918;28;20032;-82
2023/12/26 01:57:06;;;;;;;3.70;1.55;;;;;;;9.65;100.00;100578.22;5053560;28;20484;-81
2023/12/26 01:59:35;;;;;;;3.35;1.67;;;;;;;9.72;100.00;100593.41;5053598;28;20095;-81
2023/12/26 02:02:02;;;;;;;1.60;1.50;;;;;;;9.71;100.00;100583.78;5053821;28;20033;-81
2023/12/26 02:04:28;;;;;;;1.40;1.30;;;;;;;9.71;100.00;100592.59;5053794;28;20025;-83
2023/12/26 02:06:55;;;;;;;1.50;1.20;;;;;;;9.64;100.00;100581.91;5052355;28;20048;-83
2023/12/26 02:09:20;;;;;;;3.00;1.27;;;;;;;9.70;100.00;100576.81;5053677;28;20033;-82
2023/12/26 02:11:46;;;;;;;1.48;1.38;;;;;;;9.72;100.00;100590.75;5035579;28;20126;-82
2023/12/26 02:14:12;;;;;;;3.13;1.27;;;;;;;9.69;100.00;100589.28;5052522;28;20056;-82
2023/12/26 02:16:38;;;;;;;1.88;1.55;;;;;;;9.67;100.00;100586.03;5052164;28;20468;-82
2023/12/26 02:19:04;;;;;;;2.50;1.75;;;;;;;9.69;100.00;100591.94;5051879;28;20167;-82
2023/12/26 02:21:29;;;;;;;3.47;1.60;;;;;;;9.69;100.00;100585.81;5053343;28;20532;-82
2023/12/26 02:23:56;;;;;;;2.20;1.27;;;;;;;9.66;100.00;100587.03;5052063;28;20055;-82
2023/12/26 02:26:27;;;;;;;2.20;1.30;;;;;;;9.60;100.00;100583.31;5053362;28;20059;-82
2023/12/26 02:28:53;;;;;;;1.75;1.65;;;;;;;9.62;100.00;100597.25;5053038;28;20029;-82
2023/12/26 02:31:20;;;;;;;2.38;1.45;;;;;;;9.66;100.00;100603.00;5053072;28;20045;-82
2023/12/26 02:33:47;;;;;;;2.50;1.75;;;;;;;9.62;100.00;100596.44;5053094;28;20033;-82
2023/12/26 02:36:13;;;;;;;3.08;1.95;;;;;;;9.62;100.00;100599.91;5053018;28;20083;-82
2023/12/26 02:38:38;;;;;;;2.30;1.92;;;;;;;9.68;100.00;100603.63;5053267;28;20064;-82
2023/12/26 02:41:04;;;;;;;4.97;2.20;;;;;;;9.67;100.00;100602.00;5053192;28;20460;-82
2023/12/26 02:43:30;;;;;;;2.70;2.08;;;;;;;9.63;100.00;100596.22;5053174;28;20036;-82
2023/12/26 02:45:55;;;;;;;3.30;2.35;;;;;;;9.62;100.00;100597.25;5051741;28;20437;-82
2023/12/26 02:48:20;;;;;;;3.17;2.22;;;;;;;9.68;100.00;100590.31;5052937;28;20043;-82
2023/12/26 02:50:47;;;;;;;2.95;2.13;;;;;;;9.69;100.00;100607.13;5052653;28;20039;-82
2023/12/26 02:53:12;;;;;;;3.53;2.30;;;;;;;9.68;100.00;100594.81;5052822;28;20064;-82
2023/12/26 02:55:38;;;;;;;6.03;2.30;;;;;;;9.66;100.00;100597.69;5052756;28;20135;-83
2023/12/26 02:58:03;;;;;;;3.53;2.03;;;;;;;9.63;100.00;100596.22;5051575;28;20029;-82
2023/12/26 03:00:29;;;;;;;3.92;2.55;;;;;;;9.65;100.00;100596.03;5052777;28;20025;-82
2023/12/26 03:02:55;;;;;;;3.88;2.13;;;;;;;9.58;100.00;100597.84;5051677;28;20040;-82
2023/12/26 03:05:20;;;;;;;5.90;2.58;;;;;;;9.62;100.00;100612.41;5052688;28;20037;-82
2023/12/26 03:07:45;;;;;;;2.88;2.08;;;;;;;9.62;100.00;100623.88;5050737;28;20547;-82
2023/12/26 03:10:11;;;;;;;5.13;2.40;;;;;;;9.58;100.00;100622.63;5052336;28;20090;-82
2023/12/26 03:12:37;;;;;;;3.95;2.50;;;;;;;9.66;100.00;100645.59;5050888;28;20040;-82
2023/12/26 03:15:03;;;;;;;3.20;2.17;;;;;;;9.63;100.00;100649.47;5052541;28;20029;-82
2023/12/26 03:17:29;;;;;;;4.38;2.28;;;;;;;9.67;100.00;100665.91;5052397;28;20120;-82
2023/12/26 03:19:54;;;;;;;2.35;1.80;;;;;;;9.67;100.00;100644.59;5052511;28;20025;-83
2023/12/26 03:22:20;;;;;;;2.50;1.90;;;;;;;9.60;100.00;100643.72;5050550;28;20033;-82
2023/12/26 03:24:46;;;;;;;3.30;1.80;;;;;;;9.68;100.00;100648.09;5052065;28;20028;-82
2023/12/26 03:27:11;;;;;;;4.13;2.22;;;;;;;9.69;100.00;100653.19;5050921;28;20057;-82
2023/12/26 03:29:37;;;;;;;3.88;2.47;;;;;;;9.64;100.00;100651.16;5051833;28;20198;-82
2023/12/26 03:32:03;;;;;;;3.80;1.92;;;;;;;9.66;100.00;100648.28;5050572;28;20468;-82
2023/12/26 03:34:28;;;;;;;3.53;2.13;;;;;;;9.59;100.00;100637.59;5050565;28;20047;-82
2023/12/26 03:36:53;;;;;;;4.40;1.67;;;;;;;9.69;100.00;100663.84;5051810;28;20029;-82
2023/12/26 03:39:19;;;;;;;5.95;1.55;;;;;;;9.62;100.00;100655.84;5051484;28;20091;-82
2023/12/26 03:41:48;;;;;;;2.80;1.55;;;;;;;9.60;100.00;100667.69;5051832;28;20115;-82
2023/12/26 03:44:15;;;;;;;3.17;1.42;;;;;;;9.53;100.00;100642.88;5051565;28;20079;-82
2023/12/26 03:46:41;;;;;;;1.60;1.50;;;;;;;9.48;100.00;100645.28;5050448;28;20029;-82
2023/12/26 03:49:06;;;;;;;4.00;1.20;;;;;;;9.44;100.00;100647.53;5050510;28;20025;-83
2023/12/26 03:51:31;;;;;;;1.17;0.95;;;;;;;9.41;100.00;100654.06;5050421;28;20037;-82
2023/12/26 03:53:57;;;;;;;2.90;1.02;;;;;;;9.37;100.00;100641.31;5051656;28;20033;-82
2023/12/26 03:56:22;;;;;;;2.97;1.50;;;;;;;9.42;100.00;100679.66;5050398;28;20111;-82
2023/12/26 03:58:48;;;;;;;5.97;1.52;;;;;;;9.42;100.00;100673.50;5051667;28;20140;-82
2023/12/26 04:01:14;;;;;;;4.97;1.55;;;;;;;9.42;100.00;100679.66;5051736;28;20032;-82
2023/12/26 04:03:39;;;;;;;4.72;1.30;;;;;;;9.44;100.00;100684.78;5051656;28;20471;-82
2023/12/26 04:06:05;;;;;;;3.22;1.02;;;;;;;9.36;100.00;100672.44;5050500;28;20064;-83
2023/12/26 04:08:30;;;;;;;3.35;0.82;;;;;;;9.32;100.00;100681.81;5050228;28;20116;-82
2023/12/26 04:10:55;;;;;;;4.88;0.80;;;;;;;9.42;100.00;100689.47;5033338;28;20033;-82
2023/12/26 04:13:21;;;;;;;5.80;1.20;;;;;;;9.39;100.00;100697.84;5051085;28;20036;-82
2023/12/26 04:15:46;;;;;;;4.40;0.80;;;;;;;9.41;100.00;100706.47;5033396;28;20132;-82
2023/12/26 04:18:13;;;;;;;6.85;1.55;;;;;;;9.32;100.00;100686.31;5051334;28;20044;-82
2023/12/26 04:20:39;;;;;;;7.15;1.00;;;;;;;9.37;100.00;100697.22;5049828;28;20029;-82
2023/12/26 04:23:04;;;;;;;8.55;2.22;;;;;;;9.40;100.00;100708.28;5051049;28;20474;-83
2023/12/26 04:25:29;;;;;;;5.80;1.10;;;;;;;9.38;100.00;100706.88;5049717;28;20037;-82
2023/12/26 04:27:55;;;;;;;4.90;1.05;;;;;;;9.31;100.00;100706.78;5051013;28;20127;-82
2023/12/26 04:30:20;;;;;;;6.65;1.90;;;;;;;9.39;100.00;100719.97;5049788;28;20098;-83
2023/12/26 04:32:46;;;;;;;8.73;1.20;;;;;;;9.37;100.00;100726.50;5051296;28;20029;-82
2023/12/26 04:35:11;;;;;;;4.63;0.82;;;;;;;9.43;100.00;100734.56;5032948;28;20607;-82
2023/12/26 04:37:37;;;;;;;4.88;0.90;;;;;;;9.44;100.00;100738.03;5049961;28;20035;-82
2023/12/26 04:40:02;;;;;;;3.83;1.55;;;;;;;9.40;100.00;100732.25;5051305;28;20024;-82
2023/12/26 04:42:28;;;;;;;4.07;0.95;;;;;;;9.40;100.00;100747.41;5050922;28;20469;-82
2023/12/26 04:44:54;;;;;;;5.22;1.25;;;;;;;9.39;100.00;100743.91;5050983;28;20521;-82
2023/12/26 04:47:19;;;;;;;6.35;2.22;;;;;;;9.40;100.00;100745.56;5050747;28;20029;-83
2023/12/26 04:49:45;;;;;;;4.53;1.00;;;;;;;9.36;100.00;100749.63;5049696;28;20461;-83
2023/12/26 04:52:10;;;;;;;4.13;0.90;;;;;;;9.41;100.00;100763.19;5049749;28;20037;-83
2023/12/26 04:54:36;;;;;;;5.30;1.27;;;;;;;9.42;100.00;100774.66;5049634;28;20035;-82
2023/12/26 04:57:01;;;;;;;4.75;1.10;;;;;;;9.37;100.00;100734.47;5050767;28;20439;-83
2023/12/26 04:59:27;;;;;;;2.08;1.25;;;;;;;9.40;100.00;100774.84;5049744;28;20041;-82
2023/12/26 05:01:52;;;;;;;5.25;1.42;;;;;;;9.38;100.00;100776.06;5049849;28;20037;-83
2023/12/26 05:04:18;;;;;;;4.30;1.00;;;;;;;9.30;100.00;100793.00;5050880;28;20081;-82
2023/12/26 05:06:43;;;;;;;7.18;1.05;;;;;;;9.16;100.00;100794.66;5050845;28;20468;-82
2023/12/26 05:09:09;;;;;;;6.40;0.98;;;;;;;9.16;100.00;100801.84;5032980;28;20591;-82
2023/12/26 05:11:34;;;;;;;4.68;1.15;;;;;;;9.04;100.00;100790.88;5049001;28;20056;-83
2023/12/26 05:14:00;;;;;;;5.20;1.13;;;;;;;9.04;100.00;100800.66;5050451;28;20139;-83
2023/12/26 05:16:25;;;;;;;5.70;1.40;;;;;;;8.99;100.00;100806.56;5049562;28;20778;-83
2023/12/26 05:18:51;;;;;;;8.73;2.83;;;;;;;9.00;100.00;100818.84;5050755;28;20517;-83
2023/12/26 05:21:21;;;;;;;6.05;1.55;;;;;;;8.96;100.00;100815.75;5050695;28;20029;-83
2023/12/26 05:23:47;;;;;;;6.57;0.90;;;;;;;8.88;100.00;100823.84;5050790;28;20032;-83
2023/12/26 05:26:14;;;;;;;2.20;0.93;;;;;;;8.83;100.00;100828.03;5051617;28;20044;-84
2023/12/26 05:28:40;;;;;;;3.92;1.10;;;;;;;8.80;100.00;100826.56;5054894;28;20480;-83
2023/12/26 05:31:06;;;;;;;9.05;1.95;;;;;;;8.81;100.00;100854.03;5052995;28;20094;-83
2023/12/26 05:33:31;;;;;;;3.70;1.15;;;;;;;8.78;100.00;100839.25;5054808;28;20558;-83
2023/12/26 05:35:57;;;;;;;9.35;1.90;;;;;;;8.75;100.00;100837.78;5054592;28;20044;-83
2023/12/26 05:38:23;;;;;;;3.28;0.75;;;;;;;8.74;100.00;100849.41;5053275;28;20078;-84
2023/12/26 05:40:48;;;;;;;9.68;1.42;;;;;;;8.77;100.00;100853.53;5054206;28;20029;-83
2023/12/26 05:43:13;;;;;;;7.10;1.80;;;;;;;8.81;100.00;100872.63;5051302;28;20036;-78
2023/12/26 05:45:39;;;;;;;7.32;1.42;;;;;;;8.85;100.00;100877.38;5051159;28;20119;-78
2023/12/26 05:48:06;;;;;;;4.18;1.42;;;;;;;8.87;100.00;100872.69;5051283;28;20033;-78
2023/12/26 05:50:31;;;;;;;6.13;2.30;;;;;;;8.82;100.00;100876.94;5050871;28;20033;-78
2023/12/26 05:52:57;;;;;;;9.27;1.00;;;;;;;8.80;100.00;100870.97;5052454;28;20041;-78
2023/12/26 05:55:22;;;;;;;2.95;0.90;;;;;;;8.85;100.00;100888.00;5051061;28;20040;-78
2023/12/26 05:57:47;;;;;;;7.07;1.75;;;;;;;8.78;100.00;100877.31;5052386;28;20142;-78
2023/12/26 06:00:14;;;;;;;6.80;1.38;;;;;;;8.67;100.00;100871.59;5034405;28;20071;-78
2023/12/26 06:02:39;;;;;;;5.05;1.20;;;;;;;8.83;100.00;100908.66;5052282;28;20036;-78
2023/12/26 06:05:06;;;;;;;5.13;0.80;;;;;;;8.71;100.00;100884.34;5052094;28;20119;-78
2023/12/26 06:07:31;;;;;;;5.32;1.58;;;;;;;8.69;100.00;100888.22;5052133;28;20028;-78
2023/12/26 06:09:57;;;;;;;6.13;1.73;;;;;;;8.69;100.00;100904.16;5051935;28;20033;-78
2023/12/26 06:12:23;;;;;;;5.03;1.13;;;;;;;8.60;100.00;100903.44;5051983;28;20119;-78
2023/12/26 06:14:48;;;;;;;3.10;1.52;;;;;;;8.54;100.00;100890.84;5052038;28;20033;-78
2023/12/26 06:17:13;;;;;;;5.68;1.17;;;;;;;8.59;100.00;100922.22;5050551;28;20050;-78
2023/12/26 06:19:39;;;;;;;3.78;0.82;;;;;;;8.53;100.00;100910.47;5050581;28;20091;-77
2023/12/26 06:22:04;;;;;;;11.07;1.48;;;;;;;8.51;100.00;100934.59;5050596;28;20460;-77
2023/12/26 06:24:29;;;;;;;3.28;0.77;;;;;;;8.45;100.00;100900.75;5050373;28;20147;-78
2023/12/26 06:26:55;;;;;;;4.40;1.15;;;;;;;8.45;100.00;100951.25;5051931;28;20468;-79
2023/12/26 06:29:20;;;;;;;3.13;1.65;;;;;;;8.43;100.00;100961.22;5051514;28;20060;-78
2023/12/26 06:31:46;;;;;;;1.90;0.75;;;;;;;8.18;100.00;100928.72;5051566;28;20445;-78
2023/12/26 06:34:11;;;;;;;5.20;0.90;;;;;;;8.35;100.00;100948.81;5033588;28;20053;-78
2023/12/26 06:36:37;;;;;;;1.52;0.80;;;;;;;8.29;100.00;100959.34;5051447;28;20115;-79
2023/12/26 06:39:03;;;;;;;4.93;1.55;;;;;;;8.26;100.00;100968.50;5050261;28;20075;-78
2023/12/26 06:41:29;;;;;;;4.65;0.95;;;;;;;8.20;100.00;100971.88;5050208;28;20029;-78
2023/12/26 06:43:55;;;;;;;3.30;1.13;;;;;;;8.16;100.00;100975.88;5050970;28;20067;-78
2023/12/26 06:46:21;;;;;;;3.67;0.88;;;;;;;8.08;100.00;100965.31;5050254;28;20039;-78
2023/12/26 06:48:47;;;;;;;8.88;2.10;;;;;;;8.11;100.00;100984.38;5051334;28;20411;-78
2023/12/26 06:51:15;;;;;;;4.97;1.55;;;;;;;7.93;100.00;100970.56;5051170;28;20029;-79
2023/12/26 06:53:44;;;;;;;3.85;1.15;;;;;;;7.99;100.00;100979.66;5051315;28;20064;-79
2023/12/26 06:56:09;;;;;;;4.53;0.73;;;;;;;7.99;100.00;100990.25;5049695;28;20033;-79
2023/12/26 06:58:35;;;;;;;3.63;0.90;;;;;;;7.94;100.00;100993.47;5051179;28;20029;-79
2023/12/26 07:01:08;;;;;;;2.25;0.93;;;;;;;7.93;100.00;101010.38;5049869;28;20563;-79
2023/12/26 07:03:34;;;;;;;6.07;0.95;;;;;;;7.89;100.00;101001.13;5050878;28;20040;-78
2023/12/26 07:05:59;;;;;;;2.85;1.00;;;;;;;7.85;100.00;101008.59;5050958;28;20396;-79
2023/12/26 07:08:24;;;;;;;5.35;0.90;;;;;;;7.82;100.00;101014.28;5050876;28;20031;-78
2023/12/26 07:10:50;;;;;;;3.45;1.05;;;;;;;7.75;100.00;101020.44;5050815;28;20025;-78
2023/12/26 07:13:15;;;;;;;5.13;1.17;;;;;;;7.69;100.00;101022.78;5050832;28;20028;-78
2023/12/26 07:15:42;;;;;;;8.60;1.00;;;;;;;7.57;100.00;101029.50;5050858;28;20419;-79
2023/12/26 07:18:08;;;;;;;5.10;0.90;;;;;;;7.61;100.00;101062.66;5050786;28;20696;-78
2023/12/26 07:20:34;;;;;;;4.18;1.38;;;;;;;7.53;100.00;101061.88;5049461;28;20029;-79
2023/12/26 07:23:00;;;;;;;5.03;0.65;;;;;;;7.49;100.00;101071.16;5049410;28;20074;-78
2023/12/26 07:25:25;;;;;;;3.13;0.90;;;;;;;7.41;100.00;101072.84;5049466;28;20036;-79
2023/12/26 07:27:51;;;;;;;5.13;0.88;;;;;;;7.32;100.00;101071.22;5050620;28;20086;-79
2023/12/26 07:30:16;;;;;;;8.38;1.10;;;;;;;7.32;100.00;101067.72;5049226;28;20041;-79
2023/12/26 07:32:42;;;;;;;1.67;0.85;;;;;;;7.28;100.00;101077.03;5049088;28;20057;-79
2023/12/26 07:35:07;;;;;;;5.35;1.45;;;;;;;7.22;100.00;101081.19;5050274;28;20029;-79
2023/12/26 07:37:32;;;;;;;6.90;1.08;;;;;;;7.24;100.00;101093.28;5050361;28;20543;-79
2023/12/26 07:39:58;;;;;;;7.60;2.75;;;;;;;7.24;100.00;101105.72;5049017;28;20541;-79
2023/12/26 07:42:23;;;;;;;4.22;1.17;;;;;;;7.22;100.00;101099.75;5049031;28;20029;-79
2023/12/26 07:44:49;;;;;;;4.88;1.00;;;;;;;7.18;100.00;101093.13;5050110;28;20033;-78
2023/12/26 07:47:15;;;;;;;11.07;2.90;;;;;;;7.16;100.00;101087.16;5048676;28;20029;-79
2023/12/26 07:49:40;;;;;;;6.32;0.90;;;;;;;7.22;100.00;101095.25;5047484;28;20060;-78
2023/12/26 07:52:06;;;;;;;4.13;0.95;;;;;;;7.22;100.00;101092.63;5049145;28;20063;-78
2023/12/26 07:54:31;;;;;;;11.98;1.08;;;;;;;7.32;100.00;101100.41;5047810;28;20421;-78
2023/12/26 07:56:57;;;;;;;2.63;1.20;;;;;;;7.37;100.00;101097.25;5047753;28;20119;-78
2023/12/26 07:59:22;;;;;;;4.60;0.90;;;;;;;7.40;100.00;101096.91;5049202;28;20028;-78
2023/12/26 08:01:47;;;;;;;3.60;1.23;;;;;;;7.43;100.00;101109.81;5031360;28;20058;-79
2023/12/26 08:04:13;;;;;;;6.68;0.95;;;;;;;7.45;100.00;101115.78;5048597;28;20036;-78
2023/12/26 08:06:38;;;;;;;6.00;1.02;;;;;;;7.46;100.00;101120.91;5049777;28;20460;-78
2023/12/26 08:09:04;;;;;;;11.85;2.05;;;;;;;7.47;100.00;101125.25;5048528;28;20033;-78
2023/12/26 08:11:29;;;;;;;9.65;2.05;;;;;;;7.56;100.00;101144.63;5047780;28;20495;-79
2023/12/26 08:13:55;;;;;;;4.75;1.08;;;;;;;7.60;100.00;101143.28;5049434;28;21112;-79
2023/12/26 08:16:20;;;;;;;7.15;1.15;;;;;;;7.62;100.00;101154.56;5049017;28;20037;-79
2023/12/26 08:18:46;;;;;;;9.10;2.15;;;;;;;7.66;100.00;101139.13;5047627;28;20021;-78
2023/12/26 08:21:11;;;;;;;5.35;1.10;;;;;;;7.65;100.00;101153.38;5046992;28;20357;-78
2023/12/26 08:23:36;;;;;;;3.60;1.27;;;;;;;7.67;100.00;101152.22;5048177;28;20120;-77
2023/12/26 08:26:06;;;;;;;3.45;2.08;;;;;;;7.65;100.00;101148.94;5046928;28;20047;-77
2023/12/26 08:28:32;;;;;;;8.23;1.90;;;;;;;7.59;100.00;101154.91;5048807;28;20025;-80
2023/12/26 08:30:57;;;;;;;8.18;2.47;;;;;;;7.53;100.00;101155.59;5045573;28;20033;-76
2023/12/26 08:33:23;;;;;;;6.13;2.45;;;;;;;7.61;100.00;101173.31;5029346;28;20067;-76
2023/12/26 08:35:49;;;;;;;13.93;2.72;;;;;;;7.57;100.00;101164.88;5047379;28;20484;-78
2023/12/26 08:38:15;;;;;;;7.03;2.13;;;;;;;7.59;100.00;101167.34;5013004;28;20078;-78
2023/12/26 08:40:40;;;;;;;5.32;1.58;;;;;;;7.59;100.00;101186.75;5045799;28;20020;-78
2023/12/26 08:43:06;;;;;;;6.30;1.40;;;;;;;7.59;100.00;101188.56;5047183;28;20033;-76
2023/12/26 08:45:32;;;;;;;11.25;2.55;;;;;;;7.54;100.00;101190.91;5047083;28;20473;-76
2023/12/26 08:47:59;;;;;;;8.32;1.75;;;;;;;7.55;100.00;101193.41;5045840;28;20807;-77
2023/12/26 08:50:24;;;;;;;8.70;1.35;;;;;;;7.54;100.00;101190.91;5045669;28;20494;-77
2023/12/26 08:52:50;;;;;;;7.47;1.13;;;;;;;7.60;100.00;101208.84;5047171;28;20130;-77
2023/12/26 08:55:16;;;;;;;6.15;1.77;;;;;;;7.59;100.00;101213.28;5047169;28;20029;-77
2023/12/26 08:57:41;;;;;;;6.80;2.30;;;;;;;7.69;100.00;101223.72;5045650;28;20037;-77
2023/12/26 09:00:09;;;;;;;5.38;1.48;;;;;;;7.77;100.00;101230.84;5044562;28;20027;-77
2023/12/26 09:02:35;;;;;;;6.57;1.10;;;;;;;7.84;100.00;101234.50;5047062;28;20048;-77
2023/12/26 09:05:02;;;;;;;7.47;1.85;;;;;;;7.87;100.00;101226.19;5045764;28;20029;-77
2023/12/26 09:07:29;;;;;;;7.07;1.40;;;;;;;7.98;100.00;101225.81;5047090;28;20122;-77
2023/12/26 09:09:54;;;;;;;7.32;3.20;;;;;;;8.05;100.00;101221.50;5028529;28;20472;-77
2023/12/26 09:12:20;;;;;;;6.25;1.55;;;;;;;8.20;100.00;101232.25;5047225;28;20041;-77
2023/12/26 09:14:45;;;;;;;9.63;1.95;;;;;;;8.30;100.00;101238.16;5046435;28;20080;-77
2023/12/26 09:17:11;;;;;;;5.00;1.15;;;;;;;8.35;100.00;101242.97;5045123;28;20036;-77
2023/12/26 09:19:36;;;;;;;7.28;1.77;;;;;;;8.31;100.00;101239.84;5046526;28;20025;-77
2023/12/26 09:22:02;;;;;;;7.28;1.60;;;;;;;8.41;100.00;101250.31;5028722;28;20039;-77
2023/12/26 09:24:27;;;;;;;8.13;2.03;;;;;;;8.39;100.00;101254.97;5045737;28;20021;-77
2023/12/26 09:26:53;;;;;;;8.25;1.27;;;;;;;8.39;100.00;101268.25;5045072;28;20397;-77
2023/12/26 09:29:18;;;;;;;8.80;1.88;;;;;;;8.35;100.00;101274.84;5046622;28;20025;-76
2023/12/26 09:31:44;;;;;;;10.90;1.30;;;;;;;8.26;100.00;101270.59;5045033;28;20503;-76
2023/12/26 09:34:10;;;;;;;4.97;1.38;;;;;;;8.18;100.00;101268.78;5028630;28;20048;-76
2023/12/26 09:36:35;;;;;;;9.25;1.65;;;;;;;8.16;100.00;101281.41;5045297;28;20086;-76
2023/12/26 09:39:01;;;;;;;7.65;1.52;;;;;;;8.13;100.00;101279.09;5046537;28;20037;-77
2023/12/26 09:41:26;;;;;;;7.20;1.55;;;;;;;8.03;100.00;101289.06;5046681;28;20028;-77
2023/12/26 09:43:53;;;;;;;3.95;1.33;;;;;;;7.96;100.00;101298.72;5046562;28;20603;-76
2023/12/26 09:46:18;;;;;;;12.00;2.38;;;;;;;7.92;100.00;101308.84;5045061;28;20095;-77
2023/12/26 09:48:44;;;;;;;13.68;4.15;;;;;;;7.86;100.00;101314.84;5045183;28;20621;-77
2023/12/26 09:51:18;;;;;;;5.55;1.33;;;;;;;7.84;100.00;101322.97;5028488;28;20033;-76
2023/12/26 09:53:44;;;;;;;5.95;1.40;;;;;;;7.73;100.00;101318.00;5046325;28;20048;-77
2023/12/26 09:56:11;;;;;;;7.03;1.77;;;;;;;7.75;100.00;101323.13;5046662;28;20460;-76
2023/12/26 09:58:43;;;;;;;14.63;4.07;;;;;;;7.68;100.00;101317.66;5046281;28;20036;-80
2023/12/26 10:01:11;;;;;;;;;;;;;;;7.79;100.00;101346.53;5047251;28;20087;-81
2023/12/26 10:03:36;;;;;;;6.47;1.45;;;;;;;7.88;100.00;101355.31;5045617;28;19912;-80
2023/12/26 10:06:02;;;;;;;2.92;0.95;;;;;;;7.81;100.00;101331.25;5046908;28;20112;-80
2023/12/26 10:08:27;;;;;;;12.27;2.50;;;;;;;8.08;100.00;101364.59;5045979;28;20373;-81
2023/12/26 10:10:53;;;;;;;9.60;1.98;;;;;;;8.21;100.00;101374.72;5043656;28;20431;-80
2023/12/26 10:13:18;;;;;;;4.15;1.48;;;;;;;8.31;100.00;101377.22;5049569;28;20123;-80
2023/12/26 10:15:43;;;;;;;9.20;1.92;;;;;;;8.34;100.00;101375.03;5048185;28;20043;-81
2023/12/26 10:18:10;;;;;;;4.93;1.02;;;;;;;8.31;100.00;101380.69;5031453;28;20079;-81
2023/12/26 10:20:36;;;;;;;4.65;1.45;;;;;;;8.31;100.00;101380.69;5050439;28;20111;-78
2023/12/26 10:23:04;;;;;;;10.00;1.83;;;;;;;8.39;100.00;101368.38;5031308;28;20112;-80
2023/12/26 10:25:30;;;;;;;3.67;1.45;;;;;;;8.48;100.00;101380.69;5048645;28;20599;-79
2023/12/26 10:27:56;;;;;;;9.75;1.50;;;;;;;8.55;100.00;101369.19;5032068;28;20044;-80
2023/12/26 10:30:23;;;;;;;10.35;1.85;;;;;;;8.61;100.00;101372.19;5049754;28;20514;-80
2023/12/26 10:32:58;;;;;;;6.78;1.63;;;;;;;8.70;100.00;101371.16;5031726;28;20140;-79
2023/12/26 10:35:23;;;;;;;10.50;2.22;;;;;;;8.69;100.00;101362.34;5048690;28;20082;-80
2023/12/26 10:37:51;;;;;;;11.23;3.55;;;;;;;8.71;100.00;101359.50;5049547;28;20112;-80
2023/12/26 10:40:18;;;;;;;5.43;1.20;;;;;;;8.82;100.00;101376.94;5049523;28;20025;-80
2023/12/26 10:42:48;;;;;;;5.13;2.05;;;;;;;8.81;100.00;101377.94;5049692;28;20048;-80
2023/12/26 10:45:14;;;;;;;10.82;1.63;;;;;;;8.84;100.00;101373.09;5049529;28;20064;-79
2023/12/26 10:47:44;;;;;;;9.50;1.80;;;;;;;8.91;100.00;101379.38;5031183;28;20086;-79
2023/12/26 10:50:11;;;;;;;7.07;2.42;;;;;;;8.92;100.00;101383.69;5025153;28;20588;-80
2023/12/26 10:52:40;;;;;;;12.02;3.25;;;;;;;8.89;100.00;101375.25;5048229;28;20033;-80
2023/12/26 10:55:07;;;;;;;5.03;1.95;;;;;;;8.99;100.00;101391.81;5049373;28;20439;-79
2023/12/26 10:57:34;;;;;;;12.45;3.38;;;;;;;8.88;100.00;101374.41;5047664;28;20029;-79
2023/12/26 13:52:10;;;;;;;9.30;2.53;;;;;;;8.88;100.00;101579.25;5052459;28;20082;-79
2023/12/26 13:55:13;;;;;;;7.30;2.30;;;;;;;8.84;100.00;101569.94;5050734;28;20037;-79
2023/12/26 13:58:16;;;;;;;15.93;2.33;;;;;;;8.82;100.00;101581.72;5051715;28;20041;-79
2023/12/26 14:01:19;;;;;;;5.97;1.20;;;;;;;8.82;100.00;101579.06;5051564;28;20036;-79
2023/12/26 14:04:22;;;;;;;5.95;1.40;;;;;;;8.81;100.00;101585.41;5049610;28;20029;-79
2023/12/26 14:07:25;;;;;;;6.80;2.72;;;;;;;8.77;100.00;101596.34;5051448;28;20063;-79
2023/12/26 14:10:28;;;;;;;7.18;1.38;;;;;;;8.70;100.00;101598.03;5048996;28;20035;-79
2023/12/26 14:13:31;;;;;;;3.20;1.20;;;;;;;8.65;100.00;101616.31;5049403;28;20048;-79